createdAt,value
2019-03-31T00:02:07.535Z,69.40
2019-03-31T00:04:36.197Z,69.40
2019-03-31T00:07:04.420Z,70.60
2019-03-31T00:09:32.676Z,70.00
2019-03-31T00:12:00.934Z,69.90
2019-03-31T00:14:29.163Z,69.90
2019-03-31T00:16:57.421Z,70.20
2019-03-31T00:19:25.641Z,70.40
2019-03-31T00:21:53.887Z,70.70
2019-03-31T00:24:22.094Z,70.50
2019-03-31T00:26:50.314Z,70.70
2019-03-31T00:29:18.563Z,71.80
2019-03-31T00:31:46.786Z,71.40
2019-03-31T00:34:15.355Z,71.40
2019-03-31T00:36:43.575Z,71.70
2019-03-31T00:39:11.778Z,71.90
2019-03-31T00:41:40.002Z,71.90
2019-03-31T00:44:08.210Z,72.20
2019-03-31T00:46:36.790Z,72.40
2019-03-31T00:49:05.035Z,72.20
2019-03-31T00:51:33.241Z,72.50
2019-03-31T00:54:01.464Z,72.50
2019-03-31T00:56:29.685Z,73.00
2019-03-31T00:58:57.926Z,73.10
2019-03-31T01:01:36.866Z,73.20
2019-03-31T01:04:03.950Z,73.40
2019-03-31T01:06:33.937Z,73.30
2019-03-31T01:09:03.700Z,74.10
2019-03-31T01:11:31.955Z,74.00
2019-03-31T01:14:00.195Z,73.70
2019-03-31T01:16:29.325Z,73.80
2019-03-31T01:18:57.502Z,74.00
2019-03-31T01:21:25.718Z,74.20
2019-03-31T01:23:53.949Z,74.20
2019-03-31T01:26:22.170Z,73.50
2019-03-31T01:28:50.682Z,78.00
2019-03-31T01:31:18.893Z,79.80
2019-03-31T01:33:47.144Z,75.20
2019-03-31T01:36:15.373Z,75.00
2019-03-31T01:38:43.962Z,75.00
2019-03-31T01:41:13.530Z,74.50
2019-03-31T01:43:42.219Z,74.00
2019-03-31T01:46:12.078Z,75.00
2019-03-31T01:48:40.295Z,74.10
2019-03-31T01:51:08.518Z,74.80
2019-03-31T01:53:36.738Z,75.10
2019-03-31T01:56:05.327Z,74.80
2019-03-31T01:58:34.182Z,74.70
2019-03-31T02:01:04.058Z,74.90
2019-03-31T02:03:32.276Z,74.80
2019-03-31T02:06:00.555Z,75.00
2019-03-31T02:08:28.758Z,75.10
2019-03-31T02:10:59.018Z,75.10
2019-03-31T02:13:27.278Z,75.10
2019-03-31T02:15:55.502Z,75.40
2019-03-31T02:18:23.720Z,75.30
2019-03-31T02:20:51.942Z,76.00
2019-03-31T02:23:20.175Z,75.30
2019-03-31T02:25:49.998Z,75.40
2019-03-31T02:28:19.598Z,75.30
2019-03-31T02:30:47.817Z,75.60
2019-03-31T02:33:16.324Z,75.70
2019-03-31T02:35:45.310Z,75.80
2019-03-31T02:38:14.939Z,76.00
2019-03-31T02:40:43.147Z,75.90
2019-03-31T02:43:11.371Z,75.70
2019-03-31T02:45:39.612Z,75.50
2019-03-31T02:48:07.887Z,75.70
2019-03-31T02:50:44.809Z,75.60
2019-03-31T02:53:13.787Z,76.00
2019-03-31T02:55:42.713Z,76.00
2019-03-31T02:58:11.665Z,75.70
2019-03-31T03:00:40.252Z,75.80
2019-03-31T03:03:08.510Z,75.60
2019-03-31T03:05:36.717Z,76.20
2019-03-31T03:08:04.981Z,76.20
2019-03-31T03:10:33.193Z,76.30
2019-03-31T03:13:01.423Z,76.90
2019-03-31T03:15:33.013Z,76.50
2019-03-31T03:18:01.002Z,77.00
2019-03-31T03:20:29.254Z,77.00
2019-03-31T03:22:57.478Z,77.10
2019-03-31T03:25:25.716Z,77.40
2019-03-31T03:27:53.966Z,77.80
2019-03-31T03:30:22.255Z,77.80
2019-03-31T03:33:13.483Z,77.30
2019-03-31T03:35:20.565Z,76.70
2019-03-31T03:37:48.816Z,76.50
2019-03-31T03:40:17.060Z,76.50
2019-03-31T03:42:45.286Z,76.50
2019-03-31T03:45:13.507Z,76.90
2019-03-31T03:47:41.727Z,77.00
2019-03-31T03:50:09.941Z,76.80
2019-03-31T03:52:38.201Z,77.00
2019-03-31T03:55:06.401Z,77.40
2019-03-31T03:57:34.626Z,77.70
2019-03-31T04:00:03.594Z,77.70
2019-03-31T04:02:31.803Z,77.60
2019-03-31T04:05:00.023Z,77.90
2019-03-31T04:07:28.244Z,78.10
2019-03-31T04:09:56.467Z,78.70
2019-03-31T04:12:24.977Z,78.70
2019-03-31T04:14:53.232Z,78.70
2019-03-31T04:17:21.547Z,78.80
2019-03-31T04:19:49.768Z,78.20
2019-03-31T04:22:17.971Z,78.00
2019-03-31T04:24:46.185Z,78.10
2019-03-31T04:27:18.696Z,78.10
2019-03-31T04:29:44.916Z,78.40
2019-03-31T04:32:13.138Z,78.60
2019-03-31T04:34:41.399Z,78.80
2019-03-31T04:37:09.657Z,78.80
2019-03-31T04:39:37.860Z,78.70
2019-03-31T04:42:06.120Z,78.40
2019-03-31T04:44:36.323Z,78.30
2019-03-31T04:47:04.555Z,77.90
2019-03-31T04:49:33.045Z,77.60
2019-03-31T04:52:01.277Z,78.20
2019-03-31T04:54:29.487Z,78.50
2019-03-31T04:56:57.699Z,79.60
2019-03-31T04:59:25.993Z,78.90
2019-03-31T05:01:54.217Z,78.70
2019-03-31T05:04:22.464Z,79.00
2019-03-31T05:06:51.322Z,79.20
2019-03-31T05:09:19.554Z,79.50
2019-03-31T05:11:48.136Z,79.40
2019-03-31T05:14:16.352Z,79.10
2019-03-31T05:16:44.565Z,79.20
2019-03-31T05:19:12.813Z,78.90
2019-03-31T05:21:41.020Z,79.30
2019-03-31T05:24:09.280Z,79.10
2019-03-31T05:26:37.481Z,79.70
2019-03-31T05:29:06.179Z,79.20
2019-03-31T05:31:34.500Z,79.20
2019-03-31T05:34:02.710Z,79.50
2019-03-31T05:36:30.930Z,79.30
2019-03-31T05:38:59.163Z,79.80
2019-03-31T05:41:27.423Z,80.00
2019-03-31T05:44:05.509Z,79.80
2019-03-31T05:46:25.644Z,79.50
2019-03-31T05:48:53.886Z,79.20
2019-03-31T05:51:24.167Z,79.20
2019-03-31T05:53:52.453Z,79.10
2019-03-31T05:56:20.670Z,78.50
2019-03-31T05:58:50.413Z,78.20
2019-03-31T06:01:18.622Z,78.00
2019-03-31T06:03:46.858Z,77.70
2019-03-31T06:06:15.911Z,77.20
2019-03-31T06:08:44.143Z,77.00
2019-03-31T06:11:12.376Z,77.00
2019-03-31T06:13:40.598Z,75.50
2019-03-31T06:16:08.888Z,75.00
2019-03-31T06:18:37.138Z,74.90
2019-03-31T06:21:05.457Z,74.30
2019-03-31T06:23:33.713Z,74.00
2019-03-31T06:26:01.942Z,74.00
2019-03-31T06:28:30.161Z,74.40
2019-03-31T06:30:58.378Z,72.60
2019-03-31T06:33:26.686Z,72.10
2019-03-31T06:35:54.911Z,71.80
2019-03-31T06:38:23.138Z,71.00
2019-03-31T06:40:53.001Z,70.50
2019-03-31T06:43:21.231Z,69.70
2019-03-31T06:45:49.460Z,69.50
2019-03-31T06:48:17.675Z,68.70
2019-03-31T06:50:46.007Z,68.20
2019-03-31T06:53:14.250Z,68.10
2019-03-31T06:55:43.176Z,67.80
2019-03-31T06:58:11.427Z,66.20
2019-03-31T07:00:39.649Z,65.70
2019-03-31T07:03:07.891Z,65.40
2019-03-31T07:05:36.139Z,65.20
2019-03-31T07:08:04.527Z,64.90
2019-03-31T07:10:33.738Z,64.60
2019-03-31T07:13:01.984Z,63.10
2019-03-31T07:15:30.240Z,61.60
2019-03-31T07:18:00.549Z,59.00
2019-03-31T07:20:28.767Z,58.60
2019-03-31T07:22:56.982Z,57.60
2019-03-31T07:25:25.210Z,56.80
2019-03-31T07:27:53.439Z,55.70
2019-03-31T07:30:21.684Z,54.60
2019-03-31T07:32:49.899Z,53.10
2019-03-31T07:35:19.223Z,52.40
2019-03-31T07:37:47.950Z,52.00
2019-03-31T07:40:20.096Z,51.50
2019-03-31T07:42:51.109Z,51.00
2019-03-31T07:45:18.431Z,49.40
2019-03-31T07:47:47.696Z,48.70
2019-03-31T07:50:16.849Z,48.30
2019-03-31T07:52:45.140Z,47.80
2019-03-31T07:55:13.537Z,47.90
2019-03-31T07:57:41.814Z,48.40
2019-03-31T08:00:13.934Z,47.80
2019-03-31T08:02:42.127Z,46.30
2019-03-31T08:05:10.397Z,45.60
2019-03-31T08:07:39.466Z,45.10
2019-03-31T08:10:07.914Z,44.90
2019-03-31T08:12:36.151Z,43.20
2019-03-31T08:15:08.009Z,42.10
2019-03-31T08:17:36.314Z,40.70
2019-03-31T08:20:11.629Z,38.90
2019-03-31T08:22:39.854Z,37.80
2019-03-31T08:25:08.188Z,37.80
2019-03-31T08:27:36.406Z,37.50
2019-03-31T08:30:07.375Z,37.70
2019-03-31T08:32:35.600Z,37.00
2019-03-31T08:35:06.361Z,35.40
2019-03-31T08:37:34.615Z,35.70
2019-03-31T08:40:02.883Z,35.50
2019-03-31T08:42:31.111Z,35.30
2019-03-31T08:44:59.335Z,35.30
2019-03-31T08:47:27.563Z,33.20
2019-03-31T08:49:55.833Z,32.80
2019-03-31T08:52:24.086Z,32.40
2019-03-31T08:54:52.301Z,32.10
2019-03-31T08:57:20.546Z,31.00
2019-03-31T08:59:48.878Z,30.40
2019-03-31T09:02:30.966Z,29.90
2019-03-31T09:04:59.194Z,30.10
2019-03-31T09:07:27.410Z,29.40
2019-03-31T09:09:55.641Z,29.40
2019-03-31T09:12:23.853Z,28.70
2019-03-31T09:14:52.139Z,28.20
2019-03-31T09:17:20.342Z,28.00
2019-03-31T09:19:48.574Z,27.30
2019-03-31T09:22:16.803Z,26.40
2019-03-31T09:24:45.063Z,26.20
2019-03-31T09:27:13.294Z,25.80
2019-03-31T09:29:41.521Z,26.30
2019-03-31T09:32:09.743Z,26.30
2019-03-31T09:34:38.008Z,25.00
2019-03-31T09:37:06.259Z,25.00
2019-03-31T09:39:34.482Z,25.30
2019-03-31T09:42:02.698Z,25.00
2019-03-31T09:44:30.942Z,24.70
2019-03-31T09:46:59.161Z,24.50
2019-03-31T09:49:28.886Z,24.70
2019-03-31T09:51:57.110Z,24.30
2019-03-31T09:54:25.388Z,23.60
2019-03-31T09:56:53.591Z,23.40
2019-03-31T09:59:21.819Z,23.30
2019-03-31T10:01:50.094Z,23.50
2019-03-31T10:04:18.345Z,23.60
2019-03-31T10:06:46.574Z,23.30
2019-03-31T10:09:14.804Z,22.80
2019-03-31T10:11:43.025Z,23.10
2019-03-31T10:14:11.242Z,21.10
2019-03-31T10:16:39.472Z,20.70
2019-03-31T10:19:07.699Z,20.90
2019-03-31T10:21:35.965Z,21.20
2019-03-31T10:24:04.293Z,20.00
2019-03-31T10:26:32.639Z,21.50
2019-03-31T10:29:00.937Z,22.30
2019-03-31T10:31:29.187Z,22.50
2019-03-31T10:33:57.413Z,22.30
2019-03-31T10:36:25.637Z,22.30
2019-03-31T10:38:53.851Z,21.40
2019-03-31T10:41:22.155Z,21.40
2019-03-31T10:43:50.404Z,20.30
2019-03-31T10:46:18.626Z,20.30
2019-03-31T10:48:46.879Z,20.00
2019-03-31T10:51:15.119Z,20.40
2019-03-31T10:53:43.375Z,20.00
2019-03-31T10:56:11.632Z,20.20
2019-03-31T10:58:39.846Z,19.60
2019-03-31T11:01:08.086Z,20.10
2019-03-31T11:03:36.307Z,20.00
2019-03-31T11:06:04.538Z,19.80
2019-03-31T11:08:32.749Z,19.80
2019-03-31T11:11:00.970Z,19.00
2019-03-31T11:13:29.198Z,18.90
2019-03-31T11:15:57.697Z,18.40
2019-03-31T11:18:26.187Z,19.20
2019-03-31T11:20:55.449Z,18.20
2019-03-31T11:23:25.584Z,19.10
2019-03-31T11:25:53.806Z,19.90
2019-03-31T11:28:22.059Z,19.20
2019-03-31T11:30:50.667Z,19.20
2019-03-31T11:33:18.878Z,19.60
2019-03-31T11:35:47.115Z,19.10
2019-03-31T11:38:15.442Z,19.60
2019-03-31T11:40:43.672Z,19.30
2019-03-31T11:43:11.894Z,19.70
2019-03-31T11:45:40.175Z,19.60
2019-03-31T11:48:08.387Z,20.00
2019-03-31T11:50:36.656Z,19.40
2019-03-31T11:53:05.443Z,19.80
2019-03-31T11:55:33.687Z,19.60
2019-03-31T11:58:01.903Z,19.10
2019-03-31T12:00:31.811Z,19.30
2019-03-31T12:03:00.042Z,19.60
2019-03-31T12:05:28.266Z,19.90
2019-03-31T12:07:56.557Z,20.00
2019-03-31T12:10:25.255Z,19.60
2019-03-31T12:12:53.478Z,19.80
2019-03-31T12:15:21.696Z,19.80
2019-03-31T12:17:49.930Z,20.20
2019-03-31T12:20:18.171Z,19.20
2019-03-31T12:22:46.483Z,19.40
2019-03-31T12:25:14.707Z,19.40
2019-03-31T12:27:44.307Z,19.10
2019-03-31T12:30:13.154Z,19.20
2019-03-31T12:32:41.394Z,19.20
2019-03-31T12:35:10.192Z,19.40
2019-03-31T12:37:42.570Z,19.70
2019-03-31T12:40:15.234Z,20.10
2019-03-31T12:42:42.020Z,19.60
2019-03-31T12:45:12.969Z,19.10
2019-03-31T12:47:41.232Z,19.00
2019-03-31T12:50:09.454Z,19.30
2019-03-31T12:52:46.525Z,19.20
2019-03-31T12:55:07.640Z,19.00
2019-03-31T12:57:35.882Z,19.70
2019-03-31T13:00:05.986Z,19.40
2019-03-31T13:02:34.218Z,19.40
2019-03-31T13:05:02.532Z,19.00
2019-03-31T13:07:30.750Z,18.40
2019-03-31T13:09:58.977Z,18.60
2019-03-31T13:12:27.199Z,18.10
2019-03-31T13:14:55.465Z,18.20
2019-03-31T13:17:23.725Z,18.00
2019-03-31T13:19:51.946Z,17.70
2019-03-31T13:22:20.182Z,18.10
2019-03-31T13:24:48.398Z,17.80
2019-03-31T13:27:16.621Z,18.00
2019-03-31T13:29:44.850Z,18.30
2019-03-31T13:32:13.073Z,17.40
2019-03-31T13:34:41.340Z,17.40
2019-03-31T13:37:11.195Z,17.40
2019-03-31T13:39:39.409Z,17.70
2019-03-31T13:42:07.712Z,17.50
2019-03-31T13:44:35.929Z,17.00
2019-03-31T13:47:04.162Z,17.60
2019-03-31T13:49:32.383Z,17.50
2019-03-31T13:52:00.639Z,17.60
2019-03-31T13:54:28.942Z,17.50
2019-03-31T13:56:57.945Z,17.80
2019-03-31T13:59:38.970Z,17.70
2019-03-31T14:02:07.192Z,17.60
2019-03-31T14:04:50.680Z,17.90
2019-03-31T14:07:05.860Z,18.70
2019-03-31T14:09:34.088Z,18.80
2019-03-31T14:12:02.320Z,18.80
2019-03-31T14:14:30.535Z,18.90
2019-03-31T14:16:58.767Z,18.70
2019-03-31T14:19:27.331Z,18.40
2019-03-31T14:21:55.566Z,18.70
2019-03-31T14:24:26.776Z,18.70
2019-03-31T14:26:53.772Z,18.50
2019-03-31T14:29:22.028Z,19.30
2019-03-31T14:31:51.933Z,20.50
2019-03-31T14:34:20.185Z,19.80
2019-03-31T14:36:48.401Z,19.40
2019-03-31T14:39:17.261Z,19.60
2019-03-31T14:41:45.635Z,19.40
2019-03-31T14:44:13.897Z,19.40
2019-03-31T14:46:42.147Z,19.90
2019-03-31T14:49:10.374Z,19.90
2019-03-31T14:51:38.602Z,20.10
2019-03-31T14:54:06.843Z,20.00
2019-03-31T14:56:35.096Z,20.20
2019-03-31T14:59:03.319Z,20.30
2019-03-31T15:01:31.590Z,20.90
2019-03-31T15:03:59.835Z,21.50
2019-03-31T15:06:28.057Z,22.60
2019-03-31T15:08:56.284Z,22.60
2019-03-31T15:11:43.967Z,22.60
2019-03-31T15:14:12.203Z,22.20
2019-03-31T15:16:40.465Z,22.50
2019-03-31T15:19:08.679Z,22.20
2019-03-31T15:21:43.927Z,22.40
2019-03-31T15:24:06.966Z,22.70
2019-03-31T15:26:35.460Z,23.50
2019-03-31T15:29:03.758Z,23.40
2019-03-31T15:31:31.990Z,23.40
2019-03-31T15:34:00.208Z,24.30
2019-03-31T15:36:28.439Z,23.90
2019-03-31T15:39:08.128Z,24.70
2019-03-31T15:41:26.616Z,25.20
2019-03-31T15:43:54.880Z,25.20
2019-03-31T15:46:24.608Z,25.60
2019-03-31T15:48:53.212Z,26.20
2019-03-31T15:51:21.467Z,26.10
2019-03-31T15:53:49.688Z,26.70
2019-03-31T15:56:17.935Z,26.40
2019-03-31T15:58:46.162Z,26.80
2019-03-31T16:01:14.834Z,26.90
2019-03-31T16:03:43.111Z,26.90
2019-03-31T16:06:11.331Z,27.10
2019-03-31T16:08:39.577Z,27.40
2019-03-31T16:11:07.830Z,27.60
2019-03-31T16:13:36.128Z,27.20
2019-03-31T16:16:04.356Z,27.60
2019-03-31T16:18:32.623Z,27.70
2019-03-31T16:21:00.861Z,27.60
2019-03-31T16:23:29.094Z,27.60
2019-03-31T16:25:58.487Z,28.10
2019-03-31T16:28:26.762Z,28.70
2019-03-31T16:30:54.978Z,29.10
2019-03-31T16:33:23.215Z,29.10
2019-03-31T16:35:51.472Z,29.30
2019-03-31T16:38:19.698Z,29.20
2019-03-31T16:40:47.975Z,29.60
2019-03-31T16:43:16.197Z,29.90
2019-03-31T16:45:44.596Z,30.00
2019-03-31T16:48:12.828Z,30.40
2019-03-31T16:50:41.054Z,30.20
2019-03-31T16:53:09.273Z,30.10
2019-03-31T16:55:37.516Z,30.40
2019-03-31T16:58:09.201Z,30.60
2019-03-31T17:00:35.730Z,30.70
2019-03-31T17:03:04.102Z,30.90
2019-03-31T17:05:32.343Z,30.90
2019-03-31T17:08:00.660Z,30.90
2019-03-31T17:10:28.890Z,30.90
2019-03-31T17:12:57.119Z,31.10
2019-03-31T17:15:25.359Z,31.40
2019-03-31T17:17:53.609Z,31.60
2019-03-31T17:20:21.863Z,31.70
2019-03-31T17:22:50.124Z,32.00
2019-03-31T17:25:18.353Z,32.10
2019-03-31T17:27:46.570Z,32.00
2019-03-31T17:30:14.810Z,32.30
2019-03-31T17:32:43.053Z,32.50
2019-03-31T17:35:11.289Z,32.80
2019-03-31T17:37:39.499Z,32.90
2019-03-31T17:40:07.731Z,33.00
2019-03-31T17:42:35.970Z,33.30
2019-03-31T17:45:06.168Z,33.50
2019-03-31T17:47:34.427Z,33.90
2019-03-31T17:50:02.659Z,34.20
2019-03-31T17:52:30.882Z,34.20
2019-03-31T17:54:59.132Z,34.50
2019-03-31T17:57:27.410Z,34.70
2019-03-31T17:59:55.679Z,35.10
2019-03-31T18:02:23.963Z,35.60
2019-03-31T18:04:52.464Z,35.70
2019-03-31T18:07:20.682Z,36.00
2019-03-31T18:09:49.926Z,36.00
2019-03-31T18:12:18.187Z,36.20
2019-03-31T18:14:46.423Z,36.40
2019-03-31T18:17:14.722Z,36.80
2019-03-31T18:19:43.184Z,36.90
2019-03-31T18:22:16.815Z,37.30
2019-03-31T18:24:42.326Z,37.50
2019-03-31T18:27:10.788Z,37.60
2019-03-31T18:29:40.214Z,37.80
2019-03-31T18:32:08.487Z,38.10
2019-03-31T18:34:36.715Z,38.20
2019-03-31T18:37:05.122Z,38.30
2019-03-31T18:39:33.567Z,38.60
2019-03-31T18:42:02.164Z,38.60
2019-03-31T18:44:30.611Z,38.90
2019-03-31T18:46:59.159Z,39.10
2019-03-31T18:49:27.374Z,39.00
2019-03-31T18:52:00.807Z,39.30
2019-03-31T18:54:46.004Z,39.30
2019-03-31T18:57:16.563Z,39.50
2019-03-31T18:59:55.402Z,39.80
2019-03-31T19:02:43.294Z,39.70
2019-03-31T19:05:13.235Z,39.80
2019-03-31T19:07:55.292Z,39.70
2019-03-31T19:10:31.495Z,40.00
2019-03-31T19:13:18.174Z,40.90
2019-03-31T19:16:04.278Z,40.20
2019-03-31T19:18:50.411Z,40.70
2019-03-31T19:21:23.421Z,40.60
2019-03-31T19:23:53.435Z,40.70
2019-03-31T19:26:48.206Z,40.90
2019-03-31T19:29:11.711Z,41.20
2019-03-31T19:31:56.714Z,41.50
2019-03-31T19:34:26.589Z,42.00
2019-03-31T19:37:05.529Z,42.00
2019-03-31T19:39:38.686Z,42.20
2019-03-31T19:42:27.159Z,42.50
2019-03-31T19:44:57.027Z,42.80
2019-03-31T19:47:32.627Z,43.60
2019-03-31T19:50:05.511Z,43.80
2019-03-31T19:52:44.463Z,44.10
2019-03-31T19:55:20.519Z,44.50
2019-03-31T19:57:51.378Z,44.50
2019-03-31T20:00:21.251Z,44.90
2019-03-31T20:02:51.386Z,44.80
2019-03-31T20:05:21.336Z,45.00
2019-03-31T20:07:56.946Z,45.40
2019-03-31T20:10:43.232Z,46.30
2019-03-31T20:13:29.707Z,45.80
2019-03-31T20:16:19.630Z,46.40
2019-03-31T20:18:55.690Z,47.10
2019-03-31T20:21:31.944Z,47.90
2019-03-31T20:24:09.562Z,48.10
2019-03-31T20:26:57.785Z,48.30
2019-03-31T20:29:36.851Z,48.30
2019-03-31T20:32:23.442Z,49.00
2019-03-31T20:34:53.347Z,49.70
2019-03-31T20:37:26.250Z,50.00
2019-03-31T20:40:05.177Z,50.40
2019-03-31T20:42:51.957Z,50.40
2019-03-31T20:45:20.179Z,50.50
2019-03-31T20:47:48.640Z,50.30
2019-03-31T20:50:16.830Z,50.70
2019-03-31T20:52:45.136Z,50.80
2019-03-31T20:55:16.557Z,50.90
2019-03-31T20:57:43.405Z,50.80
2019-03-31T21:00:11.957Z,51.20
2019-03-31T21:02:40.291Z,51.70
2019-03-31T21:05:08.529Z,51.80
2019-03-31T21:07:36.759Z,52.10
2019-03-31T21:10:06.370Z,52.30
2019-03-31T21:12:34.591Z,52.60
2019-03-31T21:15:02.875Z,52.80
2019-03-31T21:17:31.165Z,53.10
2019-03-31T21:19:59.422Z,53.30
2019-03-31T21:22:27.645Z,53.50
2019-03-31T21:24:56.006Z,53.50
2019-03-31T21:27:24.214Z,53.70
2019-03-31T21:29:53.543Z,54.70
2019-03-31T21:32:21.779Z,55.10
2019-03-31T21:34:50.140Z,55.40
2019-03-31T21:37:18.383Z,55.40
2019-03-31T21:39:46.656Z,55.50
2019-03-31T21:42:14.887Z,55.80
2019-03-31T21:44:43.220Z,55.80
2019-03-31T21:47:11.435Z,55.80
2019-03-31T21:49:39.773Z,55.90
2019-03-31T21:52:08.077Z,56.00
2019-03-31T21:54:36.314Z,56.00
2019-03-31T21:57:04.521Z,56.30
2019-03-31T21:59:33.648Z,56.40
2019-03-31T22:02:02.074Z,56.60
2019-03-31T22:04:30.399Z,56.70
2019-03-31T22:06:58.699Z,56.80
2019-03-31T22:09:26.971Z,56.90
2019-03-31T22:11:55.275Z,56.90
2019-03-31T22:14:23.770Z,56.90
2019-03-31T22:16:52.056Z,57.00
2019-03-31T22:19:20.325Z,57.40
2019-03-31T22:21:48.599Z,58.00
2019-03-31T22:24:16.837Z,58.10
2019-03-31T22:26:45.065Z,58.00
2019-03-31T22:29:13.360Z,58.20
2019-03-31T22:31:41.657Z,58.70
2019-03-31T22:34:09.943Z,58.60
2019-03-31T22:36:38.175Z,58.90
2019-03-31T22:39:06.403Z,59.00
2019-03-31T22:41:34.632Z,58.70
2019-03-31T22:44:03.346Z,58.80
2019-03-31T22:46:31.558Z,58.80
2019-03-31T22:48:59.836Z,59.20
2019-03-31T22:51:28.095Z,59.50
2019-03-31T22:53:56.384Z,59.70
2019-03-31T22:56:24.639Z,60.00
2019-03-31T22:58:52.943Z,60.20
2019-03-31T23:01:21.169Z,60.40
2019-03-31T23:03:49.477Z,60.50
2019-03-31T23:06:17.738Z,60.20
2019-03-31T23:08:46.004Z,60.50
2019-03-31T23:11:14.221Z,60.50
2019-03-31T23:13:42.495Z,61.20
2019-03-31T23:16:10.723Z,61.20
2019-03-31T23:18:38.926Z,61.30
2019-03-31T23:21:07.196Z,61.00
2019-03-31T23:23:35.447Z,61.80
2019-03-31T23:26:03.710Z,62.30
2019-03-31T23:28:31.953Z,63.10
2019-03-31T23:31:03.421Z,63.40
2019-03-31T23:33:30.195Z,63.40
2019-03-31T23:35:58.486Z,63.90
2019-03-31T23:38:26.722Z,64.00
2019-03-31T23:40:54.967Z,64.40
2019-03-31T23:43:23.191Z,64.50
2019-03-31T23:45:51.437Z,64.70
2019-03-31T23:48:19.658Z,65.60
2019-03-31T23:50:48.028Z,65.70
2019-03-31T23:53:16.258Z,65.80
2019-03-31T23:55:44.491Z,65.80
2019-03-31T23:58:12.722Z,66.20
